Time;durP1;ratioP1;P1;durP2;ratioP2;P2;SDS_P1;SDS_P2;PMS_P1;PMS_P2;Temp;Humidity;BMP_temperature;BMP_pressure;BME280_temperature;BME280_humidity;BME280_pressure;Samples;Min_cycle;Max_cycle;Signal;HPM_P1;HPM_P2
2020/12/26 00:00:21;;;;;;;20.52;8.82;;;2.50;99.90;;;;;;4984203;28;20045;-61
2020/12/26 00:02:47;;;;;;;17.88;9.15;;;2.50;99.90;;;;;;4996603;28;20077;-61
2020/12/26 00:05:13;;;;;;;21.58;11.32;;;2.60;99.90;;;;;;5002651;28;20030;-61
2020/12/26 00:07:38;;;;;;;28.73;10.57;;;2.60;99.90;;;;;;4994845;28;20444;-62
2020/12/26 00:10:04;;;;;;;20.70;8.60;;;2.60;99.90;;;;;;4994875;28;20033;-62
2020/12/26 00:12:30;;;;;;;26.20;9.48;;;2.60;99.90;;;;;;4991367;28;20487;-62
2020/12/26 00:14:56;;;;;;;21.60;9.07;;;2.60;99.90;;;;;;4978756;28;20036;-60
2020/12/26 00:17:23;;;;;;;20.30;7.97;;;2.60;99.90;;;;;;5000028;28;20069;-61
2020/12/26 00:19:49;;;;;;;20.83;8.65;;;2.60;99.90;;;;;;4999808;28;20022;-61
2020/12/26 00:22:15;;;;;;;20.05;8.85;;;2.60;99.90;;;;;;4996596;28;20506;-61
2020/12/26 00:24:40;;;;;;;22.83;10.18;;;2.60;99.90;;;;;;4996127;28;20026;-62
2020/12/26 00:27:06;;;;;;;25.20;9.90;;;2.60;99.90;;;;;;4990782;28;20396;-61
2020/12/26 00:29:32;;;;;;;20.67;10.70;;;2.70;99.90;;;;;;4999411;28;20037;-60
2020/12/26 00:31:57;;;;;;;16.88;9.30;;;2.60;99.90;;;;;;5002057;28;20026;-61
2020/12/26 00:34:23;;;;;;;17.65;11.10;;;2.60;99.90;;;;;;4998384;28;20034;-61
2020/12/26 00:36:49;;;;;;;19.48;9.85;;;2.60;99.90;;;;;;4993322;28;20046;-62
2020/12/26 00:39:15;;;;;;;21.95;8.98;;;2.70;99.90;;;;;;4997593;28;20029;-61
2020/12/26 00:41:44;;;;;;;23.83;10.55;;;2.70;99.90;;;;;;4999433;28;20030;-60
2020/12/26 00:44:10;;;;;;;22.40;9.73;;;2.70;99.90;;;;;;4995367;28;20117;-60
2020/12/26 00:46:35;;;;;;;27.85;14.32;;;2.70;99.90;;;;;;4992591;28;20105;-61
2020/12/26 00:49:01;;;;;;;22.92;9.65;;;2.70;99.90;;;;;;4998141;28;20045;-61
2020/12/26 00:51:26;;;;;;;24.10;12.50;;;2.70;99.90;;;;;;4992884;28;20033;-59
2020/12/26 00:53:52;;;;;;;27.88;11.38;;;2.70;99.90;;;;;;4993708;28;20034;-60
2020/12/26 00:56:18;;;;;;;24.25;10.57;;;2.70;99.90;;;;;;4992610;28;20038;-60
2020/12/26 00:58:43;;;;;;;17.98;9.02;;;2.70;99.90;;;;;;4996057;28;20034;-59
2020/12/26 01:01:09;;;;;;;21.02;9.90;;;2.70;99.90;;;;;;4983940;28;20037;-61
2020/12/26 01:03:35;;;;;;;18.60;9.63;;;2.70;99.90;;;;;;4995525;28;20034;-61
2020/12/26 01:06:00;;;;;;;17.42;9.20;;;2.70;99.90;;;;;;5001877;28;20030;-60
2020/12/26 01:08:26;;;;;;;23.15;9.13;;;2.70;99.90;;;;;;4999929;28;20038;-60
2020/12/26 01:10:51;;;;;;;21.58;9.55;;;2.70;99.90;;;;;;5000895;28;20030;-60
2020/12/26 01:13:18;;;;;;;23.75;9.95;;;2.70;99.90;;;;;;5004135;28;20084;-60
2020/12/26 01:15:43;;;;;;;21.00;11.23;;;2.80;99.90;;;;;;5005485;28;20059;-59
2020/12/26 01:18:09;;;;;;;22.02;9.70;;;2.80;99.90;;;;;;5002373;28;20112;-60
2020/12/26 01:20:34;;;;;;;27.70;10.45;;;2.80;99.90;;;;;;5006938;28;20029;-60
2020/12/26 01:23:00;;;;;;;24.98;10.68;;;2.80;99.90;;;;;;4997979;28;20041;-59
2020/12/26 01:25:25;;;;;;;23.10;11.40;;;2.80;99.90;;;;;;4999895;28;20088;-60
2020/12/26 01:27:51;;;;;;;21.15;12.02;;;2.80;99.90;;;;;;5001704;28;20455;-61
2020/12/26 01:30:16;;;;;;;19.48;9.63;;;2.80;99.90;;;;;;5000939;28;20040;-60
2020/12/26 01:32:42;;;;;;;18.90;10.55;;;2.80;99.90;;;;;;5008485;28;20046;-58
2020/12/26 01:35:07;;;;;;;27.45;11.00;;;2.80;99.90;;;;;;5006728;28;20030;-61
2020/12/26 01:37:33;;;;;;;19.60;10.73;;;2.70;99.90;;;;;;4997390;28;20048;-58
2020/12/26 01:39:58;;;;;;;23.30;10.90;;;2.70;99.90;;;;;;4998054;28;20041;-59
2020/12/26 01:42:24;;;;;;;29.75;11.07;;;2.80;99.90;;;;;;4997572;28;20022;-60
2020/12/26 01:44:50;;;;;;;19.42;10.05;;;2.70;99.90;;;;;;5001155;28;20038;-60
2020/12/26 01:47:16;;;;;;;25.08;11.88;;;2.70;99.90;;;;;;4994457;28;20054;-60
2020/12/26 01:49:42;;;;;;;24.13;10.70;;;2.70;99.90;;;;;;5006106;28;20132;-59
2020/12/26 01:52:10;;;;;;;25.92;11.48;;;2.70;99.90;;;;;;4996540;28;20042;-59
2020/12/26 01:54:36;;;;;;;22.42;10.13;;;2.80;99.90;;;;;;4992227;28;20211;-60
2020/12/26 01:57:04;;;;;;;21.73;10.48;;;2.80;99.90;;;;;;4990427;28;20739;-61
2020/12/26 01:59:30;;;;;;;20.48;10.20;;;2.80;99.90;;;;;;4994441;28;20025;-61
2020/12/26 02:01:57;;;;;;;18.52;9.68;;;2.80;99.90;;;;;;4981912;28;20424;-61
2020/12/26 02:04:23;;;;;;;21.80;10.68;;;2.80;99.90;;;;;;4992891;28;20462;-59
2020/12/26 02:06:52;;;;;;;27.67;12.13;;;2.80;99.90;;;;;;4990787;28;20034;-61
2020/12/26 02:09:19;;;;;;;25.02;11.25;;;2.80;99.90;;;;;;4991938;28;20034;-59
2020/12/26 02:11:45;;;;;;;24.42;11.77;;;2.80;99.90;;;;;;4994109;28;20038;-59
2020/12/26 02:14:11;;;;;;;25.08;11.68;;;2.80;99.90;;;;;;5002073;28;20030;-60
2020/12/26 02:16:43;;;;;;;26.05;10.98;;;2.80;99.90;;;;;;5000112;28;20504;-60
2020/12/26 02:19:10;;;;;;;26.48;12.95;;;2.70;99.90;;;;;;4993021;28;20022;-61
2020/12/26 02:21:37;;;;;;;31.90;12.18;;;2.80;99.90;;;;;;4999688;28;20072;-61
2020/12/26 02:24:03;;;;;;;22.30;11.57;;;2.70;99.90;;;;;;4998313;28;20387;-61
2020/12/26 02:26:29;;;;;;;20.83;11.13;;;2.70;99.90;;;;;;4998965;28;20031;-61
2020/12/26 02:28:54;;;;;;;26.08;11.15;;;2.60;99.90;;;;;;5002354;28;20450;-59
2020/12/26 02:31:20;;;;;;;26.48;14.50;;;2.60;99.90;;;;;;5000744;28;20026;-60
2020/12/26 02:33:46;;;;;;;21.02;12.57;;;2.60;99.90;;;;;;4997273;28;20037;-60
2020/12/26 02:36:11;;;;;;;25.95;12.95;;;2.60;99.90;;;;;;4995096;28;20476;-60
2020/12/26 02:38:37;;;;;;;20.73;11.73;;;2.60;99.90;;;;;;5000303;28;20041;-60
2020/12/26 02:41:02;;;;;;;28.35;11.63;;;2.60;99.90;;;;;;4999841;28;20101;-59
2020/12/26 02:43:31;;;;;;;26.13;12.40;;;2.60;99.90;;;;;;4993621;28;20074;-59
2020/12/26 02:45:57;;;;;;;23.10;12.23;;;2.70;99.90;;;;;;4999941;28;20046;-60
2020/12/26 02:48:22;;;;;;;24.20;12.02;;;2.70;99.90;;;;;;4998909;28;20029;-61
2020/12/26 02:50:49;;;;;;;22.30;11.95;;;2.70;99.90;;;;;;4999988;28;20559;-59
2020/12/26 02:53:15;;;;;;;31.98;12.95;;;2.70;99.90;;;;;;5000541;28;20026;-59
2020/12/26 02:55:40;;;;;;;25.60;12.30;;;2.70;99.90;;;;;;4999093;28;20038;-61
2020/12/26 02:58:06;;;;;;;20.95;12.90;;;2.70;99.90;;;;;;5001748;28;20026;-60
2020/12/26 03:00:32;;;;;;;28.48;14.25;;;2.70;99.90;;;;;;4985982;28;20495;-59
2020/12/26 03:02:58;;;;;;;26.75;14.32;;;2.80;99.90;;;;;;4994960;28;20045;-60
2020/12/26 03:05:24;;;;;;;30.48;14.10;;;2.80;99.90;;;;;;5011977;28;20036;-60
2020/12/26 03:07:50;;;;;;;34.45;15.07;;;2.80;99.90;;;;;;4995063;28;20026;-60
2020/12/26 03:10:16;;;;;;;24.25;14.90;;;2.80;99.90;;;;;;5001464;28;20057;-59
2020/12/26 03:12:41;;;;;;;25.45;13.73;;;2.80;99.90;;;;;;4992891;28;20026;-59
2020/12/26 03:15:07;;;;;;;25.15;14.20;;;2.70;99.90;;;;;;4995421;28;20121;-60
2020/12/26 03:17:33;;;;;;;24.33;15.35;;;2.70;99.90;;;;;;4996721;28;20455;-60
2020/12/26 03:19:59;;;;;;;25.02;14.93;;;2.70;99.90;;;;;;4997250;28;20684;-60
2020/12/26 03:22:26;;;;;;;39.60;17.33;;;2.70;99.90;;;;;;4957711;28;20300;-60
2020/12/26 03:24:53;;;;;;;32.17;16.88;;;2.60;99.90;;;;;;4998647;28;20028;-61
2020/12/26 03:27:18;;;;;;;29.88;16.48;;;2.60;99.90;;;;;;4998292;28;20054;-60
2020/12/26 03:29:44;;;;;;;34.90;16.67;;;2.50;99.90;;;;;;4995732;28;20459;-61
2020/12/26 03:32:10;;;;;;;38.55;18.15;;;2.50;99.90;;;;;;4999416;28;20045;-60
2020/12/26 03:34:36;;;;;;;31.42;18.65;;;2.40;99.90;;;;;;5000758;28;20691;-57
2020/12/26 03:37:01;;;;;;;40.08;18.80;;;2.40;99.90;;;;;;5002845;28;20026;-60
2020/12/26 03:39:27;;;;;;;36.40;19.75;;;2.30;99.90;;;;;;5004054;28;20077;-60
2020/12/26 03:41:52;;;;;;;34.55;18.98;;;2.30;99.90;;;;;;4996817;28;20034;-60
2020/12/26 03:44:18;;;;;;;38.42;20.25;;;2.30;99.90;;;;;;5000244;28;20098;-61
2020/12/26 03:46:43;;;;;;;47.17;21.85;;;2.30;99.90;;;;;;4993262;28;20041;-60
2020/12/26 03:49:09;;;;;;;33.38;20.88;;;2.30;99.90;;;;;;5002569;28;20399;-60
2020/12/26 03:51:34;;;;;;;40.72;20.60;;;2.30;99.90;;;;;;4996679;28;20663;-61
2020/12/26 03:54:00;;;;;;;34.65;20.23;;;2.30;99.90;;;;;;5001936;28;20551;-60
2020/12/26 03:56:26;;;;;;;34.92;21.00;;;2.40;99.90;;;;;;4998997;28;20092;-60
2020/12/26 03:58:51;;;;;;;34.55;20.23;;;2.40;99.90;;;;;;5003729;28;20073;-59
2020/12/26 04:01:17;;;;;;;38.20;20.17;;;2.40;99.90;;;;;;4982811;28;20083;-60
2020/12/26 04:03:43;;;;;;;42.90;20.15;;;2.40;99.90;;;;;;4998980;28;20052;-59
2020/12/26 04:06:08;;;;;;;34.75;19.67;;;2.40;99.90;;;;;;4999898;28;20116;-61
2020/12/26 04:08:34;;;;;;;39.00;19.83;;;2.40;99.90;;;;;;5002955;28;20105;-59
2020/12/26 04:10:59;;;;;;;40.70;21.15;;;2.40;99.90;;;;;;4997553;28;20062;-60
2020/12/26 04:13:25;;;;;;;36.72;18.75;;;2.40;99.90;;;;;;5013976;28;20060;-60
2020/12/26 04:15:50;;;;;;;36.67;20.67;;;2.40;99.90;;;;;;4998798;28;20034;-59
2020/12/26 04:18:16;;;;;;;33.75;19.40;;;2.40;99.90;;;;;;5004765;28;20182;-60
2020/12/26 04:20:41;;;;;;;30.88;19.15;;;2.40;99.90;;;;;;5005648;28;20026;-59
2020/12/26 04:23:07;;;;;;;37.97;20.40;;;2.40;99.90;;;;;;4997044;28;20439;-60
2020/12/26 04:25:32;;;;;;;37.20;19.15;;;2.40;99.90;;;;;;4997730;28;20491;-60
2020/12/26 04:27:58;;;;;;;35.25;20.42;;;2.40;99.90;;;;;;4995275;28;20488;-61
2020/12/26 04:30:24;;;;;;;38.17;19.92;;;2.40;99.90;;;;;;4995156;28;20092;-59
2020/12/26 04:32:51;;;;;;;34.70;21.33;;;2.40;99.90;;;;;;4990097;28;20034;-61
2020/12/26 04:35:19;;;;;;;31.20;18.92;;;2.30;99.90;;;;;;4996429;28;20207;-60
2020/12/26 04:37:45;;;;;;;34.58;19.88;;;2.40;99.90;;;;;;4998890;28;20033;-59
2020/12/26 04:40:11;;;;;;;36.63;20.98;;;2.30;99.90;;;;;;4997476;28;20396;-59
2020/12/26 04:42:38;;;;;;;42.38;19.60;;;2.30;99.90;;;;;;4996630;28;20109;-60
2020/12/26 04:45:04;;;;;;;35.75;22.27;;;2.30;99.90;;;;;;4999762;28;20558;-61
2020/12/26 04:47:32;;;;;;;31.48;19.48;;;2.30;99.90;;;;;;4999131;28;20030;-61
2020/12/26 04:50:00;;;;;;;35.88;20.15;;;2.30;99.90;;;;;;5001110;28;20396;-60
2020/12/26 04:52:29;;;;;;;37.90;19.67;;;2.30;99.90;;;;;;5001315;28;20065;-60
2020/12/26 04:54:56;;;;;;;37.15;19.02;;;2.30;99.90;;;;;;5002471;28;20030;-60
2020/12/26 04:57:22;;;;;;;40.90;20.25;;;2.30;99.90;;;;;;4999112;28;20637;-61
2020/12/26 04:59:48;;;;;;;32.58;19.05;;;2.40;99.90;;;;;;5001189;28;20028;-59
2020/12/26 05:02:15;;;;;;;45.60;20.55;;;2.40;99.90;;;;;;4977118;28;20056;-61
2020/12/26 05:04:42;;;;;;;38.25;18.98;;;2.40;99.90;;;;;;5000963;28;20463;-60
2020/12/26 05:07:08;;;;;;;31.15;18.63;;;2.50;99.90;;;;;;4996712;28;20077;-61
2020/12/26 05:09:33;;;;;;;34.03;18.67;;;2.50;99.90;;;;;;5001672;28;20491;-61
2020/12/26 05:12:00;;;;;;;33.97;19.52;;;2.50;99.90;;;;;;5003195;28;20380;-60
2020/12/26 05:14:27;;;;;;;39.10;20.33;;;2.60;99.90;;;;;;5000730;28;20105;-60
2020/12/26 05:16:53;;;;;;;32.97;19.00;;;2.60;99.90;;;;;;5004674;28;20033;-60
2020/12/26 05:19:20;;;;;;;34.38;19.50;;;2.60;99.90;;;;;;5004657;28;20400;-60
2020/12/26 05:21:47;;;;;;;35.83;18.60;;;2.60;99.90;;;;;;5000032;28;20050;-60
2020/12/26 05:24:13;;;;;;;33.22;19.85;;;2.60;99.90;;;;;;5005041;28;20490;-61
2020/12/26 05:26:41;;;;;;;37.72;19.65;;;2.60;99.90;;;;;;4991312;28;20038;-59
2020/12/26 05:29:08;;;;;;;35.78;18.98;;;2.60;99.90;;;;;;5002359;28;20471;-60
2020/12/26 05:31:53;;;;;;;34.50;20.20;;;2.60;99.90;;;;;;5001072;28;20037;-60
2020/12/26 05:34:20;;;;;;;31.73;19.40;;;2.60;99.90;;;;;;4997899;28;20026;-60
2020/12/26 05:36:46;;;;;;;39.03;20.65;;;2.60;99.90;;;;;;5001214;28;20656;-61
2020/12/26 05:39:12;;;;;;;41.78;20.33;;;2.60;99.90;;;;;;4992527;28;20022;-60
2020/12/26 05:41:42;;;;;;;37.42;20.48;;;2.60;99.90;;;;;;4992379;28;20027;-60
2020/12/26 05:44:09;;;;;;;39.05;20.75;;;2.60;99.90;;;;;;4998294;28;20101;-58
2020/12/26 05:46:34;;;;;;;36.17;20.80;;;2.60;99.90;;;;;;4999436;28;20018;-60
2020/12/26 05:49:21;;;;;;;35.58;19.75;;;2.60;99.90;;;;;;4991639;28;20554;-60
2020/12/26 05:51:49;;;;;;;38.40;20.02;;;2.70;99.90;;;;;;5005928;28;20033;-60
2020/12/26 05:54:17;;;;;;;45.00;21.77;;;2.70;99.90;;;;;;5005515;28;20395;-61
2020/12/26 05:56:42;;;;;;;41.05;21.08;;;2.70;99.90;;;;;;5000869;28;20091;-61
2020/12/26 05:59:25;;;;;;;37.42;20.05;;;2.70;99.90;;;;;;5002767;28;20100;-60
2020/12/26 06:01:51;;;;;;;37.38;21.13;;;2.70;99.90;;;;;;4990068;28;20128;-59
2020/12/26 06:04:20;;;;;;;37.08;21.25;;;2.70;99.90;;;;;;4998157;28;20026;-60
2020/12/26 06:06:52;;;;;;;53.03;23.83;;;2.70;99.90;;;;;;5002849;28;20030;-60
2020/12/26 06:09:20;;;;;;;65.70;34.08;;;2.70;99.90;;;;;;5002798;28;20018;-60
2020/12/26 06:11:49;;;;;;;188.32;74.65;;;2.70;99.90;;;;;;5000104;28;20442;-61
2020/12/26 06:14:19;;;;;;;86.63;37.33;;;2.70;99.90;;;;;;5001902;28;20119;-61
2020/12/26 06:16:51;;;;;;;235.13;102.65;;;2.70;99.90;;;;;;4999451;28;20394;-60
2020/12/26 06:19:18;;;;;;;146.95;69.88;;;2.70;99.90;;;;;;5004905;28;20013;-60
2020/12/26 06:21:46;;;;;;;124.32;67.13;;;2.80;99.90;;;;;;5002006;28;20046;-60
2020/12/26 06:24:13;;;;;;;53.13;32.13;;;2.80;99.90;;;;;;4998129;28;20033;-61
2020/12/26 06:26:47;;;;;;;42.17;22.08;;;2.80;99.90;;;;;;4998619;28;20076;-61
2020/12/26 06:29:16;;;;;;;37.50;22.23;;;2.80;99.90;;;;;;4997057;28;20077;-61
2020/12/26 06:31:46;;;;;;;42.92;20.15;;;2.80;99.90;;;;;;4997831;28;20061;-61
2020/12/26 06:34:17;;;;;;;40.88;19.95;;;2.80;99.90;;;;;;4996730;28;20515;-61
2020/12/26 06:36:43;;;;;;;35.13;21.10;;;2.80;99.90;;;;;;4997532;28;20030;-61
2020/12/26 06:39:30;;;;;;;41.45;21.70;;;2.80;99.90;;;;;;4994722;28;20471;-61
2020/12/26 06:42:17;;;;;;;51.53;27.17;;;2.80;99.90;;;;;;4995403;28;20034;-61
2020/12/26 06:44:47;;;;;;;40.60;21.13;;;2.90;99.90;;;;;;5004233;28;20084;-59
2020/12/26 06:47:36;;;;;;;36.97;21.15;;;2.90;99.90;;;;;;4997485;28;20492;-60
2020/12/26 06:50:23;;;;;;;49.28;24.48;;;2.90;99.90;;;;;;5002355;28;20022;-59
2020/12/26 06:52:48;;;;;;;34.88;20.50;;;2.90;99.90;;;;;;5001762;28;20554;-58
2020/12/26 06:55:47;;;;;;;36.03;19.70;;;2.90;99.90;;;;;;4999973;28;20030;-60
2020/12/26 06:58:35;;;;;;;39.55;21.35;;;2.90;99.90;;;;;;5002095;28;20023;-60
2020/12/26 07:01:01;;;;;;;40.17;22.55;;;2.90;99.90;;;;;;4994743;28;20037;-60
2020/12/26 07:03:30;;;;;;;45.30;22.00;;;2.90;99.90;;;;;;4987308;28;20042;-59
2020/12/26 07:05:56;;;;;;;110.70;48.60;;;2.90;99.90;;;;;;4999955;28;20034;-61
2020/12/26 07:08:28;;;;;;;156.48;64.45;;;2.90;99.90;;;;;;5000264;28;20029;-60
2020/12/26 07:10:55;;;;;;;41.53;24.08;;;2.90;99.90;;;;;;4995068;28;20114;-60
2020/12/26 07:13:51;;;;;;;51.03;29.80;;;2.90;99.90;;;;;;4998363;28;20553;-60
2020/12/26 07:16:36;;;;;;;50.35;26.35;;;2.90;99.90;;;;;;4989169;28;20112;-61
2020/12/26 07:19:21;;;;;;;51.38;27.67;;;2.90;99.90;;;;;;5003720;28;20186;-60
2020/12/26 07:21:55;;;;;;;68.88;31.20;;;2.90;99.90;;;;;;5000374;28;20652;-61
2020/12/26 07:24:34;;;;;;;61.95;32.92;;;2.90;99.90;;;;;;4995400;28;20447;-61
2020/12/26 07:27:14;;;;;;;40.35;24.10;;;2.90;99.90;;;;;;5003344;28;20113;-61
2020/12/26 07:29:54;;;;;;;97.53;43.17;;;2.90;99.90;;;;;;4993279;28;20034;-60
2020/12/26 07:32:35;;;;;;;59.72;29.30;;;2.90;99.90;;;;;;4996344;28;20558;-61
2020/12/26 07:35:19;;;;;;;60.42;30.67;;;3.00;99.90;;;;;;5003536;28;20034;-61
2020/12/26 07:37:54;;;;;;;62.90;30.80;;;3.00;99.90;;;;;;4996387;28;20026;-59
2020/12/26 07:40:32;;;;;;;54.38;27.17;;;3.00;99.90;;;;;;5002232;28;20030;-61
2020/12/26 07:43:01;;;;;;;61.95;31.33;;;3.00;99.90;;;;;;5003479;28;20079;-61
2020/12/26 07:45:28;;;;;;;46.25;25.70;;;3.00;99.90;;;;;;5005425;28;20037;-60
2020/12/26 07:47:55;;;;;;;84.55;39.80;;;3.00;99.90;;;;;;4999595;28;20037;-61
2020/12/26 07:50:24;;;;;;;65.78;30.75;;;3.00;99.90;;;;;;4999796;28;20121;-61
2020/12/26 07:52:55;;;;;;;61.45;29.70;;;3.00;99.90;;;;;;4999187;28;20041;-60
2020/12/26 07:55:22;;;;;;;74.22;36.95;;;3.00;99.90;;;;;;5001695;28;20045;-61
2020/12/26 07:57:48;;;;;;;170.00;58.08;;;3.10;99.90;;;;;;5001972;28;20533;-61
2020/12/26 08:00:23;;;;;;;230.50;76.07;;;3.10;99.90;;;;;;5003176;28;20101;-60
2020/12/26 08:02:50;;;;;;;231.82;83.93;;;3.10;99.90;;;;;;4987399;28;20076;-61
2020/12/26 08:05:23;;;;;;;84.45;39.17;;;3.10;99.90;;;;;;4998827;28;20057;-61
2020/12/26 08:07:49;;;;;;;66.00;30.40;;;3.10;99.90;;;;;;4997827;28;20026;-61
2020/12/26 08:10:17;;;;;;;73.32;33.47;;;3.10;99.90;;;;;;5001029;28;20280;-60
2020/12/26 08:12:58;;;;;;;80.10;38.70;;;3.10;99.90;;;;;;4995694;28;20030;-64
2020/12/26 08:15:28;;;;;;;53.70;28.38;;;3.10;99.90;;;;;;4998557;28;20022;-61
2020/12/26 08:17:59;;;;;;;36.67;20.23;;;3.10;99.90;;;;;;4995834;28;20023;-60
2020/12/26 08:20:26;;;;;;;54.55;30.58;;;3.10;99.90;;;;;;5002829;28;20053;-61
2020/12/26 08:22:52;;;;;;;47.67;27.38;;;3.20;99.90;;;;;;4990974;28;20041;-62
2020/12/26 08:25:23;;;;;;;44.70;25.95;;;3.10;99.90;;;;;;5003596;28;20061;-61
2020/12/26 08:27:49;;;;;;;44.60;24.38;;;3.10;99.90;;;;;;4996288;28;20030;-60
2020/12/26 08:30:20;;;;;;;32.08;19.98;;;3.10;99.90;;;;;;5001975;28;20046;-61
2020/12/26 08:33:16;;;;;;;45.47;25.10;;;3.10;99.90;;;;;;4999162;28;20065;-61
2020/12/26 08:35:54;;;;;;;46.10;24.33;;;3.20;99.90;;;;;;4997439;28;20030;-61
2020/12/26 08:38:25;;;;;;;39.45;23.00;;;3.20;99.90;;;;;;4998400;28;20033;-62
2020/12/26 08:40:56;;;;;;;57.15;32.28;;;3.20;99.90;;;;;;5003251;28;20584;-61
2020/12/26 08:43:22;;;;;;;58.00;28.58;;;3.30;99.90;;;;;;4992393;28;20022;-61
2020/12/26 08:45:48;;;;;;;36.30;22.60;;;3.40;99.90;;;;;;5001287;28;20050;-61
2020/12/26 08:48:15;;;;;;;50.60;26.10;;;3.40;99.90;;;;;;4998979;28;20112;-61
2020/12/26 08:50:41;;;;;;;41.78;24.50;;;3.40;99.90;;;;;;4997525;28;20117;-61
2020/12/26 08:53:09;;;;;;;37.22;19.15;;;3.40;99.90;;;;;;5013596;28;20114;-62
2020/12/26 08:55:48;;;;;;;32.72;18.95;;;3.40;99.90;;;;;;4996098;28;20783;-61
2020/12/26 08:58:30;;;;;;;33.47;18.25;;;3.40;99.90;;;;;;4999218;28;20109;-60
2020/12/26 09:01:02;;;;;;;90.68;41.88;;;3.50;99.90;;;;;;4999841;28;20527;-61
2020/12/26 09:03:31;;;;;;;28.30;17.30;;;3.60;99.90;;;;;;4986606;28;20053;-60
2020/12/26 09:05:58;;;;;;;26.42;15.45;;;3.70;99.90;;;;;;5000409;28;20037;-61
2020/12/26 09:08:32;;;;;;;22.83;12.32;;;3.70;99.90;;;;;;4995663;28;20395;-61
2020/12/26 09:11:09;;;;;;;20.90;12.70;;;3.70;99.90;;;;;;5005785;28;20052;-61
2020/12/26 09:13:48;;;;;;;18.83;12.07;;;3.70;99.90;;;;;;4997625;28;20404;-60
2020/12/26 09:16:14;;;;;;;20.08;12.25;;;3.70;99.90;;;;;;4991225;28;20118;-61
2020/12/26 09:18:50;;;;;;;15.43;10.10;;;3.60;99.90;;;;;;4999746;28;20632;-61
2020/12/26 09:21:24;;;;;;;17.42;8.88;;;3.60;99.90;;;;;;5002960;28;20125;-61
2020/12/26 09:23:51;;;;;;;17.13;10.00;;;3.50;99.90;;;;;;5002705;28;20025;-61
2020/12/26 09:26:18;;;;;;;15.50;9.30;;;3.50;99.90;;;;;;5003690;28;20029;-58
2020/12/26 09:28:48;;;;;;;16.13;8.18;;;3.50;99.90;;;;;;5002654;28;20496;-60
2020/12/26 09:31:15;;;;;;;9.90;5.68;;;3.50;99.90;;;;;;5003334;28;20017;-60
2020/12/26 09:33:41;;;;;;;15.05;7.30;;;3.50;99.90;;;;;;5002347;28;20112;-60
2020/12/26 09:36:17;;;;;;;13.07;7.38;;;3.50;99.90;;;;;;4999192;28;20022;-60
2020/12/26 09:38:44;;;;;;;10.18;6.70;;;3.50;99.90;;;;;;5002028;28;20116;-61
2020/12/26 09:41:11;;;;;;;10.77;5.90;;;3.60;99.90;;;;;;4996397;28;20022;-61
2020/12/26 09:43:37;;;;;;;11.27;6.20;;;3.60;99.90;;;;;;4997566;28;20801;-61
2020/12/26 09:46:02;;;;;;;12.55;4.85;;;3.70;99.90;;;;;;5003518;28;20030;-61
2020/12/26 09:48:28;;;;;;;8.80;5.85;;;3.80;99.90;;;;;;5002009;28;20084;-61
2020/12/26 09:50:53;;;;;;;9.00;5.00;;;3.80;99.90;;;;;;5006157;28;20021;-61
2020/12/26 09:53:19;;;;;;;12.30;5.45;;;3.80;99.90;;;;;;5001195;28;20030;-61
2020/12/26 09:55:44;;;;;;;9.43;4.35;;;3.80;99.90;;;;;;5000262;28;20030;-61
2020/12/26 09:58:10;;;;;;;6.25;4.00;;;3.80;99.90;;;;;;5004853;28;20022;-61
2020/12/26 10:00:35;;;;;;;6.35;3.38;;;3.90;99.90;;;;;;4997851;28;20032;-61
2020/12/26 10:03:01;;;;;;;7.25;3.50;;;3.90;99.90;;;;;;4989177;28;20077;-61
2020/12/26 10:05:27;;;;;;;5.90;3.70;;;3.90;99.90;;;;;;4996449;28;20066;-61
2020/12/26 10:07:52;;;;;;;8.88;3.80;;;3.90;99.90;;;;;;4996701;28;20461;-61
2020/12/26 10:10:18;;;;;;;7.88;3.70;;;4.00;99.90;;;;;;4992504;28;20037;-60
2020/12/26 10:12:43;;;;;;;5.45;3.70;;;4.10;99.90;;;;;;4984188;28;20759;-61
2020/12/26 10:15:09;;;;;;;6.50;2.70;;;4.10;99.90;;;;;;4991157;28;20492;-62
2020/12/26 10:17:35;;;;;;;4.90;2.50;;;4.10;99.90;;;;;;4951849;28;20038;-59
2020/12/26 10:20:00;;;;;;;5.55;2.35;;;4.10;99.90;;;;;;5007390;28;20040;-61
2020/12/26 10:22:26;;;;;;;5.32;2.55;;;4.20;99.90;;;;;;4999556;28;20503;-60
2020/12/26 10:24:51;;;;;;;4.85;2.30;;;4.20;99.90;;;;;;4985701;28;20034;-60
2020/12/26 10:27:17;;;;;;;5.53;2.35;;;4.20;99.90;;;;;;4985504;28;20030;-59
2020/12/26 10:29:42;;;;;;;5.28;2.90;;;4.30;99.90;;;;;;4989343;28;20050;-60
2020/12/26 10:32:08;;;;;;;5.63;2.08;;;4.40;99.90;;;;;;4997900;28;20035;-59
2020/12/26 10:34:34;;;;;;;4.68;2.15;;;4.50;99.90;;;;;;4996442;28;20031;-60
2020/12/26 10:36:59;;;;;;;3.40;1.60;;;4.60;99.90;;;;;;5001974;28;20034;-60
2020/12/26 10:39:25;;;;;;;5.53;1.35;;;4.60;99.90;;;;;;5019897;28;20096;-59
2020/12/26 10:41:50;;;;;;;4.57;1.23;;;4.50;99.90;;;;;;5021845;28;20037;-61
2020/12/26 10:44:16;;;;;;;5.53;1.90;;;4.40;99.90;;;;;;5011029;28;20022;-60
2020/12/26 10:46:42;;;;;;;4.22;1.63;;;4.40;99.90;;;;;;5030597;28;20026;-60
2020/12/26 10:49:08;;;;;;;4.45;2.00;;;4.50;99.90;;;;;;5039263;28;20483;-60
2020/12/26 10:51:34;;;;;;;3.13;1.92;;;4.70;99.90;;;;;;5032421;28;20097;-60
2020/12/26 10:53:59;;;;;;;7.10;1.80;;;4.70;99.90;;;;;;5028284;28;20128;-61
2020/12/26 10:56:25;;;;;;;4.20;2.15;;;4.80;99.90;;;;;;5034527;28;20029;-61
2020/12/26 10:58:50;;;;;;;3.15;1.75;;;4.90;99.90;;;;;;5016252;28;20026;-60
2020/12/26 11:01:16;;;;;;;4.75;1.70;;;5.00;99.90;;;;;;5023608;28;20030;-61
2020/12/26 11:03:41;;;;;;;5.00;2.58;;;4.90;99.90;;;;;;5007090;28;20053;-60
2020/12/26 11:06:09;;;;;;;7.45;4.32;;;4.90;99.90;;;;;;5026135;28;20074;-60
2020/12/26 11:08:35;;;;;;;6.55;2.72;;;4.80;99.90;;;;;;5025290;28;20402;-59
2020/12/26 11:11:00;;;;;;;4.07;1.85;;;4.80;99.90;;;;;;5025991;28;20045;-58
2020/12/26 11:13:26;;;;;;;2.50;1.60;;;4.70;99.90;;;;;;5022478;28;20425;-61
2020/12/26 11:15:52;;;;;;;4.20;1.80;;;4.60;99.90;;;;;;5033386;28;20033;-59
2020/12/26 11:18:17;;;;;;;3.55;1.45;;;4.60;99.90;;;;;;5023438;28;20391;-60
2020/12/26 11:20:43;;;;;;;9.38;1.92;;;4.50;99.90;;;;;;5025745;28;20033;-59
2020/12/26 11:23:08;;;;;;;8.10;3.33;;;4.60;99.90;;;;;;5025860;28;20030;-61
2020/12/26 11:25:34;;;;;;;13.05;5.13;;;4.50;99.90;;;;;;5019407;28;20109;-59
2020/12/26 11:28:00;;;;;;;16.60;7.95;;;4.60;99.90;;;;;;5012642;28;20760;-60
2020/12/26 11:30:25;;;;;;;18.60;9.10;;;4.70;99.90;;;;;;5018697;28;20037;-60
2020/12/26 11:32:51;;;;;;;15.57;6.32;;;4.70;99.90;;;;;;5013117;28;20028;-60
2020/12/26 11:35:16;;;;;;;10.27;3.60;;;4.70;99.90;;;;;;5015422;28;20032;-60
2020/12/26 11:37:42;;;;;;;10.13;4.60;;;4.70;99.90;;;;;;5018378;28;20026;-59
2020/12/26 11:40:08;;;;;;;12.73;5.70;;;4.70;99.90;;;;;;5013218;28;20503;-59
2020/12/26 11:42:35;;;;;;;8.45;3.88;;;4.70;99.90;;;;;;5016519;28;20526;-61
2020/12/26 11:45:01;;;;;;;5.40;2.40;;;4.50;99.90;;;;;;5018646;28;20029;-59
2020/12/26 11:47:26;;;;;;;13.23;3.22;;;4.40;99.90;;;;;;5008999;28;20506;-58
2020/12/26 11:49:52;;;;;;;12.02;3.72;;;4.40;99.90;;;;;;5018729;28;20021;-60
2020/12/26 11:52:17;;;;;;;6.05;2.83;;;4.30;99.90;;;;;;5015429;28;20076;-60
2020/12/26 11:54:43;;;;;;;5.32;2.17;;;4.20;99.90;;;;;;5016370;28;20431;-60
2020/12/26 11:57:08;;;;;;;16.42;9.15;;;4.20;99.90;;;;;;5014133;28;20725;-62
2020/12/26 11:59:34;;;;;;;13.73;7.57;;;4.40;99.90;;;;;;5014277;28;20037;-59
2020/12/26 12:01:59;;;;;;;11.18;4.50;;;4.30;99.90;;;;;;5021460;28;20037;-60
2020/12/26 12:04:26;;;;;;;11.43;5.15;;;4.40;99.90;;;;;;4995685;28;20140;-59
2020/12/26 12:06:52;;;;;;;9.75;3.65;;;4.50;99.90;;;;;;5021683;28;20042;-61
2020/12/26 12:09:17;;;;;;;5.00;1.67;;;4.60;99.90;;;;;;5019458;28;20086;-60
2020/12/26 12:11:43;;;;;;;8.82;3.58;;;4.70;99.90;;;;;;5014279;28;20037;-60
2020/12/26 12:14:08;;;;;;;10.70;5.10;;;4.80;99.90;;;;;;5021848;28;20033;-60
2020/12/26 12:16:34;;;;;;;9.25;4.78;;;4.90;99.90;;;;;;5011260;28;20052;-60
2020/12/26 12:18:59;;;;;;;15.68;6.38;;;5.00;99.90;;;;;;5023926;28;20115;-59
2020/12/26 12:21:25;;;;;;;11.98;5.47;;;5.20;99.90;;;;;;5013473;28;20030;-60
2020/12/26 12:23:50;;;;;;;5.65;3.38;;;5.20;99.90;;;;;;5023752;28;20053;-59
2020/12/26 12:26:23;;;;;;;15.10;5.55;;;5.30;99.90;;;;;;5020756;28;20537;-60
2020/12/26 12:28:53;;;;;;;18.67;8.65;;;5.30;99.90;;;;;;5019026;28;20026;-60
2020/12/26 12:31:22;;;;;;;26.80;11.30;;;5.30;99.90;;;;;;5012891;28;20079;-60
2020/12/26 12:33:48;;;;;;;18.80;7.95;;;5.20;99.90;;;;;;5022069;28;20026;-59
2020/12/26 12:36:14;;;;;;;15.70;6.28;;;5.10;99.90;;;;;;5022640;28;20023;-59
2020/12/26 12:38:40;;;;;;;13.68;6.70;;;5.00;99.90;;;;;;5019486;28;20034;-60
2020/12/26 12:41:05;;;;;;;19.73;9.00;;;5.00;99.90;;;;;;5023187;28;20040;-58
2020/12/26 12:43:31;;;;;;;15.38;7.32;;;5.10;99.90;;;;;;5020911;28;20140;-60